Time;durP1;ratioP1;P1;durP2;ratioP2;P2;SDS_P1;SDS_P2;PMS_P1;PMS_P2;Temp;Humidity;BMP_temperature;BMP_pressure;BME280_temperature;BME280_humidity;BME280_pressure;Samples;Min_cycle;Max_cycle;Signal;HPM_P1;HPM_P2
2023/03/01 00:00:40;;;;;;;11.20;5.53;;;3.70;87.80;;;;;;5077160;28;20478;-88
2023/03/01 00:03:07;;;;;;;11.93;6.28;;;3.70;87.90;;;;;;5060727;28;20057;-88
2023/03/01 00:05:32;;;;;;;10.90;5.25;;;3.70;88.30;;;;;;5077490;28;20069;-88
2023/03/01 00:07:59;;;;;;;13.02;6.57;;;3.60;88.30;;;;;;5060373;28;20052;-88
2023/03/01 00:10:26;;;;;;;11.52;4.82;;;3.60;88.70;;;;;;5076855;28;20062;-89
2023/03/01 00:12:52;;;;;;;9.55;5.18;;;3.60;89.00;;;;;;5076836;28;20444;-88
2023/03/01 00:15:18;;;;;;;11.57;5.63;;;3.60;89.20;;;;;;5076866;28;20047;-88
2023/03/01 00:17:44;;;;;;;10.20;4.80;;;3.60;89.40;;;;;;5076539;28;20048;-88
2023/03/01 00:20:12;;;;;;;7.85;4.65;;;3.50;89.20;;;;;;5060748;28;20032;-88
2023/03/01 00:22:37;;;;;;;8.48;4.63;;;3.50;89.60;;;;;;5076874;28;20032;-90
2023/03/01 00:25:04;;;;;;;9.40;4.78;;;3.50;89.60;;;;;;5078687;28;20477;-88
2023/03/01 00:27:29;;;;;;;6.53;4.10;;;3.50;90.00;;;;;;5060497;28;20039;-89
2023/03/01 00:29:55;;;;;;;7.45;3.85;;;3.50;90.00;;;;;;5076488;28;20460;-88
2023/03/01 00:32:21;;;;;;;6.15;3.38;;;3.50;90.10;;;;;;5076516;28;20071;-88
2023/03/01 00:34:53;;;;;;;7.22;3.90;;;3.40;90.10;;;;;;5076558;28;20107;-88
2023/03/01 00:37:20;;;;;;;8.52;3.90;;;3.40;90.10;;;;;;5076849;28;20035;-88
2023/03/01 00:39:47;;;;;;;7.78;3.75;;;3.40;90.40;;;;;;5076341;28;20072;-88
2023/03/01 00:42:12;;;;;;;5.60;3.42;;;3.40;90.50;;;;;;5076615;28;20028;-88
2023/03/01 00:44:38;;;;;;;6.22;3.70;;;3.40;90.60;;;;;;5061006;28;20028;-88
2023/03/01 00:47:06;;;;;;;7.28;3.80;;;3.30;90.60;;;;;;5078380;28;20043;-88
2023/03/01 00:49:32;;;;;;;5.80;3.22;;;3.30;90.70;;;;;;5062729;28;20024;-89
2023/03/01 00:51:59;;;;;;;6.70;3.38;;;3.30;90.80;;;;;;5078087;28;20039;-88
2023/03/01 00:54:24;;;;;;;6.65;3.40;;;3.30;90.80;;;;;;5060321;28;20118;-88
2023/03/01 00:56:50;;;;;;;6.28;3.28;;;3.20;90.80;;;;;;5076597;28;20044;-89
2023/03/01 00:59:16;;;;;;;6.72;3.80;;;3.20;91.10;;;;;;5060071;28;20036;-88
2023/03/01 01:01:44;;;;;;;6.45;3.40;;;3.20;91.00;;;;;;5059502;28;20434;-88
2023/03/01 01:04:13;;;;;;;6.13;3.20;;;3.20;91.00;;;;;;5076591;28;20024;-88
2023/03/01 01:06:46;;;;;;;6.20;3.38;;;3.10;91.00;;;;;;5080797;28;20047;-88
2023/03/01 01:09:18;;;;;;;5.38;3.25;;;3.10;91.10;;;;;;5077522;28;20084;-86
2023/03/01 01:11:46;;;;;;;6.68;3.70;;;3.10;91.20;;;;;;5076169;28;20059;-88
2023/03/01 01:14:12;;;;;;;6.28;3.50;;;3.10;91.20;;;;;;5076729;28;20020;-87
2023/03/01 01:16:38;;;;;;;7.03;3.55;;;3.10;91.40;;;;;;5076374;28;20024;-87
2023/03/01 01:19:04;;;;;;;5.78;3.85;;;3.00;91.40;;;;;;5076607;28;20020;-86
2023/03/01 01:21:31;;;;;;;7.43;3.50;;;2.90;91.80;;;;;;5076894;28;20061;-86
2023/03/01 01:23:57;;;;;;;6.38;3.72;;;2.90;91.80;;;;;;5076354;28;20032;-87
2023/03/01 01:26:25;;;;;;;7.00;3.38;;;2.90;91.80;;;;;;5076502;28;20051;-87
2023/03/01 01:28:52;;;;;;;7.15;3.40;;;2.90;91.80;;;;;;5080557;28;20085;-87
2023/03/01 01:31:18;;;;;;;6.90;3.67;;;2.90;91.80;;;;;;5059661;28;20040;-87
2023/03/01 01:33:44;;;;;;;6.68;3.60;;;2.80;91.90;;;;;;5076130;28;20043;-87
2023/03/01 01:36:11;;;;;;;6.90;3.65;;;2.80;92.00;;;;;;5089743;28;20024;-86
2023/03/01 01:38:37;;;;;;;8.05;4.93;;;2.80;92.00;;;;;;5096318;28;20045;-86
2023/03/01 01:41:04;;;;;;;7.13;3.58;;;2.80;92.10;;;;;;5099269;28;20030;-86
2023/03/01 01:43:34;;;;;;;7.40;3.90;;;2.70;92.10;;;;;;5097330;28;20022;-87
2023/03/01 01:46:25;;;;;;;7.82;3.80;;;2.70;92.20;;;;;;5113510;28;20024;-86
2023/03/01 01:48:58;;;;;;;7.68;3.70;;;2.60;92.50;;;;;;5095268;28;20459;-86
2023/03/01 01:51:28;;;;;;;8.50;4.20;;;2.70;92.90;;;;;;5083524;28;20032;-87
2023/03/01 01:54:20;;;;;;;7.57;4.20;;;2.60;93.10;;;;;;5084984;28;20020;-88
2023/03/01 01:56:54;;;;;;;8.40;5.05;;;2.60;92.90;;;;;;5071570;28;20809;-87
2023/03/01 01:59:24;;;;;;;6.45;4.03;;;2.60;93.30;;;;;;5079796;28;20020;-85
2023/03/01 02:01:53;;;;;;;6.53;4.32;;;2.50;93.50;;;;;;5081282;28;20039;-88
2023/03/01 02:04:22;;;;;;;7.63;4.50;;;2.50;93.80;;;;;;5080609;28;20044;-87
2023/03/01 02:06:57;;;;;;;7.60;4.18;;;2.50;93.80;;;;;;5077805;28;20052;-87
2023/03/01 02:09:23;;;;;;;9.00;5.05;;;2.50;94.00;;;;;;5076964;28;20395;-87
2023/03/01 02:11:50;;;;;;;9.88;4.90;;;2.50;94.10;;;;;;5077121;28;20036;-87
2023/03/01 02:14:17;;;;;;;7.10;4.32;;;2.40;94.20;;;;;;5077697;28;20066;-87
2023/03/01 02:16:43;;;;;;;9.52;5.68;;;2.40;94.60;;;;;;5100586;28;20021;-87
2023/03/01 02:19:19;;;;;;;7.57;4.50;;;2.40;94.80;;;;;;5066461;28;20375;-86
2023/03/01 02:22:06;;;;;;;7.40;4.80;;;2.40;95.10;;;;;;5082671;28;20028;-87
2023/03/01 02:24:45;;;;;;;8.23;4.63;;;2.30;95.30;;;;;;5083964;28;20074;-87
2023/03/01 02:27:11;;;;;;;8.23;5.20;;;2.30;95.40;;;;;;5084807;28;20079;-87
2023/03/01 02:29:38;;;;;;;8.48;4.95;;;2.30;95.60;;;;;;5085847;28;20095;-87
2023/03/01 02:32:04;;;;;;;10.25;5.03;;;2.30;95.70;;;;;;5086619;28;20096;-87
2023/03/01 02:34:32;;;;;;;8.70;5.32;;;2.20;95.70;;;;;;5085086;28;20081;-86
2023/03/01 02:37:06;;;;;;;8.45;5.05;;;2.30;95.80;;;;;;5082089;28;20073;-87
2023/03/01 02:39:47;;;;;;;10.05;5.10;;;2.20;96.00;;;;;;5086568;28;20025;-87
2023/03/01 02:42:18;;;;;;;8.73;5.63;;;2.20;96.20;;;;;;5090749;28;20042;-87
2023/03/01 02:44:44;;;;;;;7.93;5.22;;;2.20;96.40;;;;;;5092429;28;20024;-87
2023/03/01 02:47:10;;;;;;;8.65;5.13;;;2.20;96.60;;;;;;5076319;28;20029;-87
2023/03/01 02:49:36;;;;;;;9.23;5.35;;;2.10;96.40;;;;;;5093900;28;20032;-86
2023/03/01 02:52:41;;;;;;;8.40;5.00;;;2.10;96.80;;;;;;5093344;28;20059;-87
2023/03/01 02:55:16;;;;;;;8.40;5.40;;;2.10;97.20;;;;;;5094863;28;20028;-87
2023/03/01 02:57:44;;;;;;;8.15;4.88;;;2.10;97.40;;;;;;5084535;28;20103;-87
2023/03/01 03:00:19;;;;;;;9.10;5.45;;;2.10;97.40;;;;;;5078906;28;20020;-87
2023/03/01 03:02:45;;;;;;;7.78;5.22;;;2.10;97.40;;;;;;5096709;28;20028;-87
2023/03/01 03:05:18;;;;;;;9.32;5.07;;;2.00;97.60;;;;;;5078655;28;20085;-86
2023/03/01 03:07:46;;;;;;;11.85;5.10;;;2.00;97.80;;;;;;5077452;28;20074;-87
2023/03/01 03:10:15;;;;;;;7.70;4.82;;;2.00;98.00;;;;;;5061750;28;20032;-87
2023/03/01 03:12:42;;;;;;;7.53;4.68;;;2.00;98.00;;;;;;5096262;28;20042;-87
2023/03/01 03:15:09;;;;;;;8.02;4.28;;;2.00;98.00;;;;;;5096556;28;20052;-87
2023/03/01 03:17:36;;;;;;;8.32;5.00;;;2.00;98.40;;;;;;5061736;28;20456;-86
2023/03/01 03:20:04;;;;;;;7.80;4.68;;;2.00;98.30;;;;;;5078249;28;20036;-87
2023/03/01 03:22:31;;;;;;;8.27;4.72;;;2.00;98.40;;;;;;5096128;28;20059;-87
2023/03/01 03:24:57;;;;;;;11.35;5.50;;;2.00;98.60;;;;;;5078276;28;20486;-87
2023/03/01 03:27:25;;;;;;;8.32;5.10;;;2.00;98.80;;;;;;5077819;28;20024;-87
2023/03/01 03:29:50;;;;;;;7.82;4.70;;;2.00;98.80;;;;;;5077797;28;20032;-87
2023/03/01 03:32:16;;;;;;;7.38;4.70;;;1.90;98.70;;;;;;5077687;28;20101;-87
2023/03/01 03:34:42;;;;;;;7.35;4.90;;;1.90;98.70;;;;;;5077628;28;20039;-88
2023/03/01 03:38:01;;;;;;;8.50;5.05;;;1.90;98.80;;;;;;5061553;28;20028;-88
2023/03/01 03:39:54;;;;;;;8.32;4.90;;;1.90;98.90;;;;;;5080266;28;20472;-87
2023/03/01 03:42:21;;;;;;;9.38;4.65;;;1.90;99.00;;;;;;5061084;28;20068;-87
2023/03/01 03:44:48;;;;;;;6.68;4.65;;;1.90;99.20;;;;;;5095517;28;20107;-87
2023/03/01 03:47:14;;;;;;;9.70;4.97;;;1.80;99.20;;;;;;5077483;28;20096;-87
2023/03/01 03:49:39;;;;;;;8.45;5.13;;;1.80;99.20;;;;;;5061570;28;20467;-87
2023/03/01 03:52:13;;;;;;;8.38;4.68;;;1.80;99.30;;;;;;5095796;28;20047;-87
2023/03/01 03:54:40;;;;;;;9.48;5.18;;;1.80;99.40;;;;;;5095664;28;20024;-87
2023/03/01 03:57:05;;;;;;;9.65;5.07;;;1.80;99.50;;;;;;5060816;28;20176;-87
2023/03/01 03:59:31;;;;;;;7.22;4.68;;;1.80;99.60;;;;;;5060400;28;20515;-87
2023/03/01 04:01:57;;;;;;;8.73;5.10;;;1.80;99.80;;;;;;5078749;28;20146;-87
2023/03/01 04:04:23;;;;;;;9.32;5.55;;;1.70;99.90;;;;;;5060518;28;20052;-87
2023/03/01 04:06:48;;;;;;;8.75;4.97;;;1.70;99.90;;;;;;5060420;28;21169;-87
2023/03/01 04:09:14;;;;;;;9.50;5.25;;;1.70;99.90;;;;;;5060703;28;20020;-87
2023/03/01 04:11:40;;;;;;;8.40;4.93;;;1.70;99.90;;;;;;5077177;28;20549;-85
2023/03/01 04:14:05;;;;;;;10.73;6.20;;;1.70;99.90;;;;;;5061576;28;20050;-87
2023/03/01 04:16:31;;;;;;;11.38;5.25;;;1.60;99.90;;;;;;5061036;28;20028;-86
2023/03/01 04:19:00;;;;;;;7.97;5.07;;;1.60;99.90;;;;;;5078476;28;20020;-86
2023/03/01 04:21:26;;;;;;;8.55;5.00;;;1.60;99.90;;;;;;5060974;28;20479;-86
2023/03/01 04:23:52;;;;;;;9.75;4.85;;;1.60;99.90;;;;;;5061541;28;20032;-87
2023/03/01 04:26:19;;;;;;;8.57;5.05;;;1.60;99.90;;;;;;5077480;28;20028;-86
2023/03/01 04:28:47;;;;;;;8.77;5.07;;;1.60;99.90;;;;;;5060866;28;20030;-87
2023/03/01 04:31:18;;;;;;;7.80;4.90;;;1.60;99.90;;;;;;5076807;28;20032;-86
2023/03/01 04:33:46;;;;;;;7.97;5.27;;;1.50;99.90;;;;;;5077433;28;20069;-86
2023/03/01 04:36:14;;;;;;;9.80;4.80;;;1.50;99.90;;;;;;5077592;28;20756;-87
2023/03/01 04:38:40;;;;;;;8.90;5.20;;;1.50;99.90;;;;;;5077052;28;20028;-86
2023/03/01 04:41:07;;;;;;;8.43;4.70;;;1.50;99.90;;;;;;5076765;28;20025;-86
2023/03/01 04:43:36;;;;;;;8.30;5.00;;;1.50;99.90;;;;;;5095031;28;20035;-86
2023/03/01 04:46:10;;;;;;;8.88;4.72;;;1.50;99.90;;;;;;5074608;28;20105;-88
2023/03/01 04:48:37;;;;;;;7.93;4.95;;;1.50;99.90;;;;;;5084422;28;20039;-86
2023/03/01 04:51:04;;;;;;;9.38;4.80;;;1.50;99.90;;;;;;5104151;28;20080;-89
2023/03/01 04:53:30;;;;;;;7.85;4.85;;;1.50;99.90;;;;;;5076770;28;20025;-86
2023/03/01 04:55:56;;;;;;;8.43;4.70;;;1.50;99.90;;;;;;5046987;28;20457;-86
2023/03/01 04:58:27;;;;;;;7.82;4.60;;;1.50;99.90;;;;;;5054068;28;20036;-87
2023/03/01 05:00:53;;;;;;;7.07;5.10;;;1.40;99.90;;;;;;5064079;28;20067;-86
2023/03/01 05:03:19;;;;;;;9.13;4.90;;;1.50;99.90;;;;;;5074998;28;20112;-86
2023/03/01 05:05:47;;;;;;;8.60;4.40;;;1.40;99.90;;;;;;5056926;28;20115;-84
2023/03/01 05:08:20;;;;;;;9.48;4.88;;;1.50;99.90;;;;;;5058976;28;20090;-88
2023/03/01 05:10:51;;;;;;;9.82;4.53;;;1.40;99.90;;;;;;5041912;28;20123;-87
2023/03/01 05:13:21;;;;;;;8.68;4.85;;;1.40;99.90;;;;;;5056852;28;20039;-88
2023/03/01 05:15:58;;;;;;;7.80;4.55;;;1.40;99.90;;;;;;5056486;28;20116;-87
2023/03/01 05:18:28;;;;;;;7.95;4.78;;;1.40;99.90;;;;;;5057082;28;20031;-87
2023/03/01 05:21:04;;;;;;;10.98;4.65;;;1.40;99.90;;;;;;5058683;28;20043;-87
2023/03/01 05:23:32;;;;;;;9.32;4.88;;;1.30;99.90;;;;;;5058831;28;20447;-87
2023/03/01 05:25:59;;;;;;;8.23;4.47;;;1.30;99.90;;;;;;5060031;28;20078;-86
2023/03/01 05:28:26;;;;;;;8.73;4.55;;;1.30;99.90;;;;;;5060852;28;20052;-88
2023/03/01 05:30:52;;;;;;;9.27;4.60;;;1.30;99.90;;;;;;5059769;28;20051;-88
2023/03/01 05:33:18;;;;;;;7.40;4.47;;;1.30;99.90;;;;;;5059422;28;20039;-88
2023/03/01 05:35:45;;;;;;;7.88;4.50;;;1.30;99.90;;;;;;5045358;28;20032;-87
2023/03/01 05:38:15;;;;;;;8.73;4.30;;;1.30;99.90;;;;;;5043259;28;20086;-87
2023/03/01 05:40:43;;;;;;;10.93;5.15;;;1.30;99.90;;;;;;5058988;28;20025;-87
2023/03/01 05:43:10;;;;;;;7.30;4.22;;;1.30;99.90;;;;;;5077077;28;20028;-87
2023/03/01 05:45:37;;;;;;;9.02;4.65;;;1.30;99.90;;;;;;5042776;28;20491;-88
2023/03/01 05:48:04;;;;;;;8.48;4.38;;;1.20;99.90;;;;;;5058617;28;20021;-87
2023/03/01 05:50:34;;;;;;;9.23;4.80;;;1.20;99.90;;;;;;5058898;28;20380;-86
2023/03/01 05:53:10;;;;;;;9.30;4.20;;;1.20;99.90;;;;;;5062189;28;20028;-86
2023/03/01 05:55:37;;;;;;;11.07;4.47;;;1.20;99.90;;;;;;5059990;28;20024;-86
2023/03/01 05:58:05;;;;;;;8.95;4.60;;;1.20;99.90;;;;;;5059828;28;20024;-86
2023/03/01 06:00:31;;;;;;;8.75;4.75;;;1.20;99.90;;;;;;5060750;28;20102;-87
2023/03/01 06:02:58;;;;;;;8.32;4.28;;;1.20;99.90;;;;;;5043003;28;20083;-86
2023/03/01 06:05:24;;;;;;;7.78;4.45;;;1.20;99.90;;;;;;5058778;28;20025;-87
2023/03/01 06:07:50;;;;;;;7.25;4.40;;;1.20;99.90;;;;;;5067764;28;20055;-87
2023/03/01 06:10:17;;;;;;;7.07;4.30;;;1.20;99.90;;;;;;5078894;28;20054;-87
2023/03/01 06:12:44;;;;;;;8.20;4.43;;;1.20;99.90;;;;;;5078831;28;20491;-86
2023/03/01 06:15:11;;;;;;;8.43;5.15;;;1.10;99.90;;;;;;5078813;28;20027;-87
2023/03/01 06:17:40;;;;;;;8.63;4.75;;;1.10;99.90;;;;;;5078564;28;20054;-86
2023/03/01 06:20:10;;;;;;;7.95;4.40;;;1.10;99.90;;;;;;5078456;28;20537;-86
2023/03/01 06:22:36;;;;;;;7.45;4.35;;;1.10;99.90;;;;;;5078519;28;20430;-87
2023/03/01 06:25:02;;;;;;;7.78;4.60;;;1.10;99.90;;;;;;5062801;28;20069;-88
2023/03/01 06:27:28;;;;;;;9.50;4.20;;;1.10;99.90;;;;;;5078475;28;20490;-87
2023/03/01 06:29:54;;;;;;;9.55;4.70;;;1.20;99.90;;;;;;5078441;28;20056;-87
2023/03/01 06:32:20;;;;;;;8.13;4.78;;;1.10;99.90;;;;;;5062103;28;20399;-86
2023/03/01 06:34:45;;;;;;;7.65;4.70;;;1.10;99.90;;;;;;5078579;28;20032;-88
2023/03/01 06:37:11;;;;;;;8.23;4.75;;;1.10;99.90;;;;;;5078536;28;20018;-88
2023/03/01 06:39:37;;;;;;;7.85;4.43;;;1.10;99.90;;;;;;5061860;28;20024;-88
2023/03/01 06:42:03;;;;;;;7.35;4.32;;;1.20;99.90;;;;;;5062119;28;20039;-87
2023/03/01 06:44:29;;;;;;;9.57;4.95;;;1.10;99.90;;;;;;5062263;28;20024;-87
2023/03/01 06:46:55;;;;;;;10.75;5.20;;;1.10;99.90;;;;;;5080285;28;20387;-87
2023/03/01 06:49:20;;;;;;;9.57;5.38;;;1.10;99.90;;;;;;5079277;28;20107;-87
2023/03/01 06:51:46;;;;;;;8.50;5.07;;;1.10;99.90;;;;;;5079449;28;20114;-87
2023/03/01 06:54:12;;;;;;;11.20;5.57;;;1.10;99.90;;;;;;5082358;28;20028;-87
2023/03/01 06:56:38;;;;;;;9.63;5.22;;;1.10;99.90;;;;;;5080185;28;20024;-88
2023/03/01 06:59:04;;;;;;;10.13;5.22;;;1.10;99.90;;;;;;5080864;28;20035;-88
2023/03/01 07:01:30;;;;;;;10.55;5.25;;;1.10;99.90;;;;;;5079171;28;20078;-91
2023/03/01 07:03:56;;;;;;;11.35;5.70;;;1.10;99.90;;;;;;5098008;28;20032;-88
2023/03/01 07:06:23;;;;;;;9.48;5.35;;;1.10;99.90;;;;;;5064273;28;20492;-87
2023/03/01 07:08:48;;;;;;;16.25;6.00;;;1.10;99.90;;;;;;5063725;28;20043;-87
2023/03/01 07:11:14;;;;;;;9.93;5.63;;;1.10;99.90;;;;;;5063805;28;20461;-88
2023/03/01 07:13:40;;;;;;;10.93;5.45;;;1.10;99.90;;;;;;5061529;28;20056;-90
2023/03/01 07:16:06;;;;;;;10.90;5.72;;;1.10;99.90;;;;;;5060005;28;20024;-87
2023/03/01 07:18:32;;;;;;;11.00;4.88;;;1.10;99.90;;;;;;5076833;28;20051;-87
2023/03/01 07:20:58;;;;;;;9.10;4.72;;;1.10;99.90;;;;;;5058217;28;20452;-87
2023/03/01 07:23:23;;;;;;;9.68;6.10;;;1.20;99.90;;;;;;5077011;28;20437;-87
2023/03/01 07:25:53;;;;;;;20.80;7.57;;;1.20;99.90;;;;;;5075776;28;20032;-88
2023/03/01 07:28:19;;;;;;;10.15;5.72;;;1.20;99.90;;;;;;5075061;28;20013;-87
2023/03/01 07:30:45;;;;;;;12.02;5.80;;;1.20;99.90;;;;;;5058601;28;20380;-88
2023/03/01 07:33:11;;;;;;;11.07;6.30;;;1.20;99.90;;;;;;5077684;28;20032;-84
2023/03/01 07:35:36;;;;;;;10.32;5.38;;;1.30;99.90;;;;;;5061075;28;20149;-88
2023/03/01 07:38:02;;;;;;;9.63;5.65;;;1.30;99.90;;;;;;5082091;28;20032;-87
2023/03/01 07:40:28;;;;;;;9.55;5.35;;;1.30;99.90;;;;;;5076486;28;20069;-85
2023/03/01 07:42:57;;;;;;;12.65;5.22;;;1.30;99.90;;;;;;5055868;28;20035;-87
2023/03/01 07:45:24;;;;;;;15.07;5.93;;;1.40;99.90;;;;;;5077298;28;20441;-86
2023/03/01 07:47:51;;;;;;;8.43;5.60;;;1.40;99.90;;;;;;5095487;28;20042;-85
2023/03/01 07:50:17;;;;;;;10.93;5.40;;;1.40;99.90;;;;;;5074337;28;20036;-85
2023/03/01 07:52:45;;;;;;;10.82;5.82;;;1.40;99.90;;;;;;5057834;28;20492;-84
2023/03/01 07:55:11;;;;;;;9.65;5.97;;;1.50;99.90;;;;;;5077850;28;20024;-85
2023/03/01 07:57:37;;;;;;;9.18;5.72;;;1.40;99.90;;;;;;5093489;28;20081;-85
2023/03/01 08:00:04;;;;;;;15.40;5.47;;;1.60;99.90;;;;;;5069303;28;20024;-86
2023/03/01 08:02:30;;;;;;;11.05;5.75;;;1.50;99.90;;;;;;5093248;28;20028;-85
2023/03/01 08:04:58;;;;;;;13.77;7.30;;;1.60;99.90;;;;;;5066783;28;20032;-89
2023/03/01 08:07:23;;;;;;;10.45;5.25;;;1.60;99.90;;;;;;5095624;28;20056;-88
2023/03/01 08:09:49;;;;;;;7.60;5.18;;;1.70;99.90;;;;;;5069539;28;20050;-87
2023/03/01 08:12:16;;;;;;;8.52;5.00;;;1.70;99.90;;;;;;5063080;28;20067;-87
2023/03/01 08:14:42;;;;;;;9.23;5.20;;;1.80;99.90;;;;;;5076879;28;20056;-87
2023/03/01 08:17:08;;;;;;;8.30;4.90;;;1.80;99.90;;;;;;5076597;28;20052;-86
2023/03/01 08:19:34;;;;;;;11.02;5.38;;;1.90;99.90;;;;;;5051454;28;20107;-88
2023/03/01 08:22:03;;;;;;;8.65;4.78;;;1.90;99.90;;;;;;5076551;28;20028;-86
2023/03/01 08:24:29;;;;;;;10.32;5.43;;;2.00;99.90;;;;;;5078166;28;20028;-86
2023/03/01 08:26:55;;;;;;;9.43;5.25;;;2.00;99.90;;;;;;5060489;28;20020;-86
2023/03/01 08:29:21;;;;;;;9.85;5.50;;;2.10;99.90;;;;;;5070624;28;20024;-86
2023/03/01 08:31:47;;;;;;;9.05;5.68;;;2.20;99.90;;;;;;5071953;28;20043;-86
2023/03/01 08:34:15;;;;;;;8.05;5.10;;;2.20;99.90;;;;;;5068083;28;20024;-87
2023/03/01 08:36:43;;;;;;;9.13;5.10;;;2.20;99.90;;;;;;5059846;28;20110;-90
2023/03/01 08:39:12;;;;;;;8.93;5.13;;;2.30;99.90;;;;;;5068308;28;20020;-86
2023/03/01 08:41:38;;;;;;;8.00;5.03;;;2.40;99.90;;;;;;5063383;28;20031;-87
2023/03/01 08:44:04;;;;;;;9.23;5.63;;;2.40;99.90;;;;;;5069174;28;20032;-86
2023/03/01 08:46:35;;;;;;;9.57;5.55;;;2.40;99.90;;;;;;5048742;28;20038;-87
2023/03/01 08:49:07;;;;;;;9.10;5.28;;;2.50;99.90;;;;;;5074202;28;20092;-86
2023/03/01 08:51:36;;;;;;;9.52;5.25;;;2.50;99.90;;;;;;5061976;28;20038;-87
2023/03/01 08:54:04;;;;;;;13.35;5.03;;;2.60;99.90;;;;;;5076225;28;20028;-86
2023/03/01 08:56:29;;;;;;;8.65;4.80;;;2.60;99.90;;;;;;5060186;28;20024;-87
2023/03/01 08:58:55;;;;;;;10.90;5.25;;;2.70;99.90;;;;;;5061076;28;20475;-90
2023/03/01 09:01:20;;;;;;;11.52;4.70;;;2.80;99.90;;;;;;5047979;28;20021;-90
2023/03/01 09:03:47;;;;;;;9.00;5.15;;;2.80;99.90;;;;;;5075596;28;20036;-87
2023/03/01 09:06:13;;;;;;;9.07;5.13;;;2.90;99.90;;;;;;5065298;28;20016;-86
2023/03/01 09:08:45;;;;;;;9.27;4.90;;;2.90;99.90;;;;;;5046704;28;20048;-91
2023/03/01 09:11:15;;;;;;;7.57;4.50;;;3.00;99.90;;;;;;5069115;28;20039;-88
2023/03/01 09:13:41;;;;;;;8.18;4.90;;;3.10;99.90;;;;;;5063845;28;20048;-88
2023/03/01 09:16:08;;;;;;;7.90;4.80;;;3.10;99.90;;;;;;5074083;28;20031;-88
2023/03/01 09:18:35;;;;;;;8.15;4.72;;;3.10;99.90;;;;;;5043519;28;20024;-88
2023/03/01 09:21:09;;;;;;;9.25;4.32;;;3.20;99.90;;;;;;5051680;28;20376;-87
2023/03/01 09:23:39;;;;;;;8.63;4.30;;;3.30;99.90;;;;;;5066844;28;20024;-88
2023/03/01 09:26:06;;;;;;;7.90;4.55;;;3.30;99.90;;;;;;5075853;28;20025;-88
2023/03/01 09:28:32;;;;;;;8.13;4.22;;;3.40;99.90;;;;;;5067679;28;20111;-87
2023/03/01 09:30:59;;;;;;;7.32;4.35;;;3.50;99.90;;;;;;5071102;28;20448;-87
2023/03/01 09:33:25;;;;;;;7.80;4.25;;;3.50;99.90;;;;;;5080604;28;20031;-88
2023/03/01 09:35:59;;;;;;;9.65;4.65;;;3.60;99.90;;;;;;5080647;28;20383;-89
2023/03/01 09:38:25;;;;;;;8.00;4.45;;;3.60;99.90;;;;;;5075998;28;20075;-89
2023/03/01 09:40:51;;;;;;;10.43;5.22;;;3.70;99.90;;;;;;5073205;28;20487;-89
2023/03/01 09:43:30;;;;;;;11.40;4.68;;;3.80;99.90;;;;;;5058100;28;20056;-88
2023/03/01 09:46:00;;;;;;;9.02;5.07;;;3.80;99.90;;;;;;5077363;28;20032;-89
2023/03/01 09:48:28;;;;;;;9.32;5.00;;;3.90;99.90;;;;;;5066519;28;20433;-88
2023/03/01 09:50:54;;;;;;;8.98;5.20;;;4.00;99.90;;;;;;5070149;28;20137;-87
2023/03/01 09:53:31;;;;;;;10.07;5.28;;;4.10;99.90;;;;;;5070635;28;20051;-89
2023/03/01 09:56:05;;;;;;;8.63;4.63;;;4.20;99.90;;;;;;5074668;28;20031;-88
2023/03/01 09:58:53;;;;;;;9.23;4.97;;;4.30;99.90;;;;;;5074181;28;20024;-88
2023/03/01 10:01:31;;;;;;;9.32;4.93;;;4.30;99.90;;;;;;5068808;28;20026;-88
2023/03/01 10:04:13;;;;;;;9.43;4.72;;;4.40;99.90;;;;;;5067401;28;20021;-89
2023/03/01 10:06:44;;;;;;;9.23;4.63;;;4.50;99.90;;;;;;5074377;28;20494;-88
2023/03/01 10:09:17;;;;;;;7.93;4.80;;;4.60;99.90;;;;;;5052958;28;20075;-87
2023/03/01 10:11:49;;;;;;;9.32;4.93;;;4.70;99.90;;;;;;5071097;28;20423;-87
2023/03/01 10:14:44;;;;;;;8.18;5.40;;;4.80;99.60;;;;;;5073827;28;20024;-89
2023/03/01 10:17:20;;;;;;;10.18;6.07;;;4.90;99.50;;;;;;5071057;28;20075;-89
2023/03/01 10:19:47;;;;;;;9.43;5.03;;;5.10;99.40;;;;;;5093926;28;20099;-89
2023/03/01 10:22:31;;;;;;;10.00;5.28;;;5.10;98.80;;;;;;5078444;28;20115;-88
2023/03/01 10:24:59;;;;;;;9.20;5.22;;;5.30;98.80;;;;;;5078879;28;20028;-88
2023/03/01 10:27:36;;;;;;;8.82;5.88;;;5.40;98.50;;;;;;5078160;28;20055;-85
2023/03/01 10:30:29;;;;;;;10.00;5.82;;;5.50;98.10;;;;;;5065978;28;20060;-85
2023/03/01 10:32:56;;;;;;;8.95;5.93;;;5.60;97.40;;;;;;5064284;28;20041;-85
2023/03/01 10:35:25;;;;;;;9.57;5.78;;;5.70;97.60;;;;;;5048875;28;20123;-86
2023/03/01 10:38:20;;;;;;;8.85;5.10;;;5.80;97.00;;;;;;5063511;28;20039;-88
2023/03/01 10:40:53;;;;;;;7.55;4.70;;;6.00;96.80;;;;;;5069890;28;20047;-86
2023/03/01 10:43:20;;;;;;;9.23;5.22;;;6.10;96.90;;;;;;5078354;28;20119;-86
2023/03/01 10:45:46;;;;;;;8.65;4.57;;;6.20;96.60;;;;;;5062007;28;20024;-90
2023/03/01 10:48:17;;;;;;;10.65;5.57;;;6.30;96.70;;;;;;5078204;28;20020;-87
2023/03/01 10:50:45;;;;;;;8.52;4.68;;;6.40;96.40;;;;;;5071223;28;20030;-86
2023/03/01 10:53:26;;;;;;;10.02;5.22;;;6.60;96.10;;;;;;5061717;28;20033;-86
2023/03/01 10:56:18;;;;;;;9.75;5.30;;;6.60;95.50;;;;;;5075461;28;20073;-87
2023/03/01 10:58:59;;;;;;;7.70;4.90;;;6.80;95.70;;;;;;5088923;28;20036;-86
2023/03/01 11:01:35;;;;;;;10.85;5.60;;;6.90;95.50;;;;;;5078411;28;20128;-87
2023/03/01 11:04:07;;;;;;;9.98;5.78;;;7.00;94.50;;;;;;5074694;28;20028;-90
2023/03/01 11:06:38;;;;;;;7.85;4.53;;;7.20;94.50;;;;;;5090087;28;20025;-89
2023/03/01 11:09:20;;;;;;;7.90;4.70;;;7.20;94.10;;;;;;5092482;28;20044;-88
2023/03/01 11:11:51;;;;;;;8.82;4.78;;;7.40;93.70;;;;;;5088879;28;20052;-87
2023/03/01 11:14:24;;;;;;;;;;;7.50;93.70;;;;;;5091689;28;20074;-88
2023/03/01 11:17:15;;;;;;;7.40;4.32;;;7.60;93.10;;;;;;5088026;28;19955;-87
2023/03/01 11:19:40;;;;;;;8.85;4.15;;;7.70;92.30;;;;;;5068029;28;20028;-87
2023/03/01 11:22:20;;;;;;;7.60;4.35;;;7.90;92.30;;;;;;5067738;28;20051;-87
2023/03/01 11:24:51;;;;;;;6.28;4.20;;;8.00;92.00;;;;;;5081998;28;20052;-87
2023/03/01 11:27:31;;;;;;;7.43;4.38;;;8.10;91.00;;;;;;5072244;28;20127;-87
2023/03/01 11:30:24;;;;;;;7.22;4.15;;;8.20;90.40;;;;;;5070980;28;20020;-88
2023/03/01 11:33:07;;;;;;;7.43;4.05;;;8.30;90.10;;;;;;5078049;28;20103;-88
2023/03/01 11:35:37;;;;;;;9.00;4.30;;;8.40;89.60;;;;;;5075938;28;20078;-87
2023/03/01 11:38:15;;;;;;;9.27;4.35;;;8.50;88.30;;;;;;5074185;28;20116;-87
2023/03/01 11:40:58;;;;;;;6.70;4.10;;;8.60;86.00;;;;;;5069784;28;20029;-88
2023/03/01 11:43:44;;;;;;;8.30;4.43;;;8.60;86.00;;;;;;5073565;28;20052;-86
2023/03/01 11:46:31;;;;;;;8.25;4.22;;;8.80;85.70;;;;;;5084789;28;20020;-89
2023/03/01 11:49:18;;;;;;;7.30;4.50;;;8.90;85.20;;;;;;5074518;28;20038;-89
2023/03/01 11:52:02;;;;;;;6.53;4.28;;;9.00;84.20;;;;;;5065828;28;20510;-88
2023/03/01 11:54:54;;;;;;;8.45;4.00;;;9.10;83.70;;;;;;5077508;28;20056;-88
2023/03/01 11:57:36;;;;;;;8.50;3.90;;;9.20;82.70;;;;;;5075027;28;20103;-88
2023/03/01 12:00:23;;;;;;;7.18;4.45;;;9.30;81.00;;;;;;5076721;28;20024;-88
2023/03/01 12:03:15;;;;;;;8.20;4.20;;;9.40;79.60;;;;;;5066091;28;20074;-87
2023/03/01 12:06:03;;;;;;;8.38;4.50;;;9.50;78.60;;;;;;5048627;28;20095;-87
2023/03/01 12:08:45;;;;;;;8.13;3.78;;;9.60;78.80;;;;;;5075051;28;20055;-88
2023/03/01 12:11:21;;;;;;;7.30;3.72;;;9.70;78.40;;;;;;5067728;28;20028;-86
2023/03/01 12:13:52;;;;;;;6.00;3.97;;;9.70;77.80;;;;;;5077069;28;20046;-88
2023/03/01 12:16:44;;;;;;;8.13;4.35;;;9.80;76.90;;;;;;5076644;28;20028;-88
2023/03/01 12:19:16;;;;;;;6.10;3.53;;;9.90;75.70;;;;;;5071810;28;20024;-88
2023/03/01 12:21:54;;;;;;;6.78;4.13;;;10.00;75.40;;;;;;5072486;28;20123;-88
2023/03/01 12:24:44;;;;;;;6.22;4.10;;;10.10;75.90;;;;;;5069107;28;20765;-89
2023/03/01 12:27:38;;;;;;;8.10;4.50;;;10.10;74.40;;;;;;5069959;28;20028;-87
2023/03/01 12:30:22;;;;;;;8.93;4.10;;;10.30;75.00;;;;;;5062078;28;20543;-88
2023/03/01 12:32:47;;;;;;;8.35;4.50;;;10.40;73.70;;;;;;5071096;28;20040;-88
2023/03/01 12:35:24;;;;;;;7.82;4.65;;;10.40;73.30;;;;;;5076638;28;20026;-88
2023/03/01 12:37:56;;;;;;;7.78;4.00;;;10.50;72.50;;;;;;5061578;28;20353;-87
2023/03/01 12:40:33;;;;;;;7.78;4.00;;;10.60;71.30;;;;;;5056282;28;20101;-88
2023/03/01 12:43:16;;;;;;;6.55;3.72;;;10.60;70.20;;;;;;5068386;28;20035;-88
2023/03/01 12:45:57;;;;;;;6.25;3.60;;;10.60;70.00;;;;;;5069588;28;20024;-88
2023/03/01 12:48:32;;;;;;;9.63;3.85;;;10.60;68.20;;;;;;5073894;28;20016;-87
2023/03/01 12:51:04;;;;;;;9.38;4.40;;;10.70;68.20;;;;;;5069948;28;20020;-88
2023/03/01 12:53:37;;;;;;;6.25;3.72;;;10.70;67.90;;;;;;5065339;28;20043;-88
2023/03/01 12:56:09;;;;;;;6.18;3.50;;;10.70;66.70;;;;;;5090876;28;20050;-89
2023/03/01 12:58:35;;;;;;;6.93;3.70;;;10.80;66.30;;;;;;5069183;28;20028;-90
2023/03/01 13:01:19;;;;;;;7.47;3.53;;;10.80;65.90;;;;;;5085993;28;20484;-93
2023/03/01 13:03:44;;;;;;;6.38;3.78;;;10.80;64.20;;;;;;5060130;28;20055;-92
2023/03/01 13:06:40;;;;;;;7.45;3.50;;;10.80;65.30;;;;;;5076259;28;20376;-87
2023/03/01 13:09:32;;;;;;;6.35;3.47;;;10.90;65.40;;;;;;5059803;28;20132;-89
2023/03/01 13:11:58;;;;;;;7.75;4.05;;;11.00;64.50;;;;;;5061109;28;20028;-87